Reklama
Líbí se Vám tento web? Budeme velmi rádi, pokud přidáte hodnocení +1

Seznam meteostanic a jejich METAR

Vyhledat místa podle abecedy:
A B C D E F G H I J K L M N O P Q R S T U V W X Y Z

Filtrovat:

ID stanice:
a/nebo
Název místa (fulltext):
 
Místo (ID)Naposledy načteno 
Vagar (EKVG) 17.06.2018 10:50 UTC Zobrazit METAR
EKVG 171050Z 12011KT 9999 FEW004 SCT006 BKN010 11/10 Q1004
Valencia (LEVC) 21.06.2018 02:00 UTC Zobrazit METAR
LEVC 210200Z 31004KT CAVOK 20/15 Q1018 NOSIG
Varna (LBWN) 21.06.2018 02:00 UTC Zobrazit METAR
LBWN 210200Z VRB01KT CAVOK 15/13 Q1016 NOSIG
Verona (LIPX) 21.06.2018 01:50 UTC Zobrazit METAR
LIPX 210150Z 33003KT CAVOK 20/16 Q1017
Vienna (LOWW) 21.06.2018 01:50 UTC Zobrazit METAR
LOWW 210150Z 20003KT 160V250 CAVOK 20/15 Q1016 NOSIG
Vientiane (VLVT) 21.06.2018 02:00 UTC Zobrazit METAR
VLVT 210200Z 30002KT 5000 BR BKN016 BKN083 28/26 Q1009 NOSIG
Vieuxfort (TLPL) 21.06.2018 02:00 UTC Zobrazit METAR
TLPL 210200Z 09014KT 9999 SCT026 27/22 Q1017 NOSIG
Vilnius (EYVI) 21.06.2018 01:50 UTC Zobrazit METAR
EYVI 210150Z 17005KT CAVOK 11/09 Q1015 NOSIG
Vitebsk (UMII) Zatím nenačteno  
Volgograd (URWW) Zatím nenačteno  
Voronezh (UUOO) Zatím nenačteno  
Reklama

Počasí na Váš email

Emaily jsou bez reklamy a bez spamu



Odhlásit newsletter

Reklama


Lunární kalendář

  • 28.06.
  • 06.07.
  • 13.07.
  • 19.07.



Slunečno.cz na Google+

Reklama


Reklama
Povinné ručení
Reklama




Reklama